Time;durP1;ratioP1;P1;durP2;ratioP2;P2;SDS_P1;SDS_P2;PMS_P1;PMS_P2;Temp;Humidity;BMP_temperature;BMP_pressure;BME280_temperature;BME280_humidity;BME280_pressure;Samples;Min_cycle;Max_cycle;Signal;HPM_P1;HPM_P2
2021/09/27 00:00:55;;;;;;;9.08;8.18;;;;;;;20.40;55.78;101975.38;1586286;88;21566;-48
2021/09/27 00:03:21;;;;;;;11.75;8.80;;;;;;;20.40;55.83;101976.70;1564471;91;21094;-48
2021/09/27 00:05:48;;;;;;;9.95;8.63;;;;;;;20.38;55.79;101977.20;1567616;91;21057;-51
2021/09/27 00:08:16;;;;;;;9.33;8.25;;;;;;;20.39;55.66;101976.30;1566587;91;21057;-51
2021/09/27 00:10:47;;;;;;;15.93;9.23;;;;;;;20.36;55.66;101975.09;1567839;91;21078;-55
2021/09/27 00:13:14;;;;;;;13.20;9.20;;;;;;;20.33;55.73;101968.63;1460817;98;21076;-50
2021/09/27 00:15:47;;;;;;;10.90;9.10;;;;;;;20.34;55.66;101976.94;1461090;97;21045;-48
2021/09/27 00:18:14;;;;;;;11.90;9.33;;;;;;;20.31;55.62;101978.41;1468287;96;21136;-51
2021/09/27 00:20:44;;;;;;;13.38;9.60;;;;;;;20.28;55.74;101983.81;1483555;95;21184;-52
2021/09/27 00:23:11;;;;;;;14.00;9.28;;;;;;;20.23;55.78;101978.75;1483674;95;21608;-48
2021/09/27 00:25:37;;;;;;;11.50;9.80;;;;;;;20.20;55.77;101977.99;1468293;96;21144;-50
2021/09/27 00:28:04;;;;;;;10.72;9.03;;;;;;;20.15;55.82;101979.47;1468237;96;21107;-54
2021/09/27 00:30:31;;;;;;;11.45;9.35;;;;;;;20.13;55.90;101973.88;1468241;96;21191;-49
2021/09/27 00:32:58;;;;;;;12.23;9.55;;;;;;;20.09;56.03;101974.44;1468285;96;21083;-51
2021/09/27 00:35:28;;;;;;;13.58;10.40;;;;;;;20.07;55.90;101982.89;1483491;97;21092;-50
2021/09/27 00:37:54;;;;;;;13.25;9.93;;;;;;;20.04;55.99;101984.36;1483560;95;21103;-50
2021/09/27 00:40:29;;;;;;;11.38;9.38;;;;;;;19.99;56.09;101985.48;1494297;93;21153;-48
2021/09/27 00:42:56;;;;;;;11.75;9.58;;;;;;;19.95;56.13;101986.50;1539823;92;21557;-50
2021/09/27 00:45:26;;;;;;;11.28;8.85;;;;;;;19.95;56.10;101989.14;1525048;92;21077;-50
2021/09/27 00:47:52;;;;;;;11.75;9.13;;;;;;;19.95;56.10;101989.14;1539002;93;21576;-51
2021/09/27 00:50:21;;;;;;;12.15;8.63;;;;;;;19.92;56.26;101991.47;1555994;91;21148;-50
2021/09/27 00:52:48;;;;;;;11.85;8.95;;;;;;;19.91;56.47;101998.98;1540759;92;21663;-51
2021/09/27 00:55:17;;;;;;;11.55;8.95;;;;;;;19.89;56.67;101998.64;1542144;92;21010;-50
2021/09/27 00:57:43;;;;;;;9.73;8.50;;;;;;;19.87;56.62;101990.79;1562699;90;21108;-50
2021/09/27 01:00:14;;;;;;;10.38;8.15;;;;;;;19.87;56.53;101993.43;1629465;86;21029;-47
2021/09/27 01:02:40;;;;;;;11.55;9.05;;;;;;;19.88;56.50;101990.33;1671400;84;21083;-48
2021/09/27 01:05:09;;;;;;;10.63;8.98;;;;;;;19.88;56.73;101987.69;1671382;86;21123;-51
2021/09/27 01:07:53;;;;;;;11.48;8.53;;;;;;;19.88;56.86;101992.98;1671394;84;21025;-50
2021/09/27 01:10:51;;;;;;;10.18;8.15;;;;;;;19.86;56.83;101988.22;1745191;80;21034;-48
2021/09/27 01:14:07;;;;;;;12.35;8.38;;;;;;;19.84;56.85;101987.42;1677641;85;21585;-51
2021/09/27 01:16:48;;;;;;;8.65;7.58;;;;;;;19.85;56.71;101990.44;1678421;85;21003;-51
2021/09/27 01:19:52;;;;;;;9.05;7.75;;;;;;;19.82;56.38;101989.27;1674723;85;21003;-51
2021/09/27 01:22:47;;;;;;;8.63;7.08;;;;;;;19.83;56.08;101987.00;1666330;85;21062;-50
2021/09/27 01:25:31;;;;;;;9.35;6.55;;;;;;;19.81;55.57;101994.12;1674725;85;21060;-50
2021/09/27 01:28:09;;;;;;;8.40;7.50;;;;;;;19.79;55.04;101991.56;1676748;85;21538;-50
2021/09/27 01:30:59;;;;;;;7.53;6.78;;;;;;;19.77;54.65;101979.33;1619169;88;21043;-51
2021/09/27 01:34:11;;;;;;;9.30;7.20;;;;;;;19.75;54.61;101982.05;1619391;88;21074;-48
2021/09/27 01:37:01;;;;;;;8.58;6.95;;;;;;;19.75;54.56;101981.17;1607901;88;21047;-49
2021/09/27 01:39:56;;;;;;;8.25;7.35;;;;;;;19.71;54.51;101987.50;1581895;90;21118;-50
2021/09/27 01:42:45;;;;;;;9.55;6.70;;;;;;;19.73;54.42;101989.63;1565893;91;21080;-49
2021/09/27 01:45:40;;;;;;;8.68;7.00;;;;;;;19.72;54.52;101994.52;1491078;96;21018;-49
2021/09/27 01:48:49;;;;;;;8.53;6.87;;;;;;;19.71;54.58;101991.47;1509199;94;21083;-49
2021/09/27 01:51:44;;;;;;;9.18;7.15;;;;;;;19.69;53.95;101986.70;1556437;91;21013;-50
2021/09/27 01:54:44;;;;;;;8.40;7.08;;;;;;;19.65;53.61;101993.90;1574924;91;21038;-50
2021/09/27 01:57:22;;;;;;;9.63;7.33;;;;;;;19.62;53.51;102006.37;1572143;91;21142;-50
2021/09/27 02:00:03;;;;;;;8.45;7.33;;;;;;;19.57;53.65;102003.03;1520549;93;21105;-49
2021/09/27 02:02:55;;;;;;;11.50;7.95;;;;;;;19.54;53.77;102008.45;1516693;94;21088;-49
2021/09/27 02:05:39;;;;;;;9.83;8.25;;;;;;;19.52;53.65;102007.62;1516904;94;21056;-48
2021/09/27 02:08:35;;;;;;;8.18;7.30;;;;;;;19.48;53.68;102010.40;1541827;91;21181;-51
2021/09/27 02:11:20;;;;;;;9.05;7.75;;;;;;;19.44;53.81;102011.44;1565909;91;21046;-48
2021/09/27 02:14:06;;;;;;;8.85;7.55;;;;;;;19.38;53.87;102012.99;1561468;91;21097;-50
2021/09/27 02:16:47;;;;;;;10.58;8.48;;;;;;;19.35;53.93;102007.81;1564007;91;21030;-51
2021/09/27 02:19:34;;;;;;;10.80;9.38;;;;;;;19.31;54.10;102008.82;1558311;91;21109;-49
2021/09/27 02:22:12;;;;;;;10.10;8.33;;;;;;;19.32;54.06;102008.38;1555997;91;21056;-50
2021/09/27 02:25:15;;;;;;;10.40;8.10;;;;;;;19.28;54.15;102014.23;1558513;91;21100;-51
2021/09/27 02:27:42;;;;;;;9.65;8.30;;;;;;;19.24;54.26;102007.35;1559333;91;21078;-48
2021/09/27 02:30:12;;;;;;;12.35;8.63;;;;;;;19.22;54.45;102008.32;1559985;91;21133;-50
2021/09/27 02:32:56;;;;;;;9.50;7.50;;;;;;;19.20;54.44;102007.06;1558410;91;21088;-50
2021/09/27 02:35:28;;;;;;;9.43;7.37;;;;;;;19.19;54.43;102010.61;1532200;92;21080;-50
2021/09/27 02:38:19;;;;;;;10.48;8.08;;;;;;;19.18;54.57;102011.55;1561019;92;21087;-50
2021/09/27 02:41:00;;;;;;;13.35;7.70;;;;;;;19.16;54.67;102012.06;1557074;92;21019;-49
2021/09/27 02:43:27;;;;;;;10.00;7.55;;;;;;;19.17;54.61;102004.53;1537808;93;21101;-49
2021/09/27 02:45:53;;;;;;;8.70;6.72;;;;;;;19.19;54.57;102007.10;1537768;93;21676;-51
2021/09/27 02:50:58;;;;;;;9.73;7.08;;;;;;;19.22;54.49;102009.64;1555870;91;21093;-51
2021/09/27 02:53:24;;;;;;;9.30;6.90;;;;;;;19.22;54.50;102007.00;1555609;91;21069;-51
2021/09/27 02:56:26;;;;;;;10.43;6.50;;;;;;;19.24;54.56;102007.35;1556456;91;21572;-51
2021/09/27 02:59:17;;;;;;;9.28;5.90;;;;;;;19.24;54.64;102003.39;1544668;91;21595;-49
2021/09/27 03:02:02;;;;;;;8.43;5.62;;;;;;;19.28;54.67;102002.36;1545376;92;21079;-50
2021/09/27 03:04:51;;;;;;;7.30;5.42;;;;;;;19.33;54.54;102008.34;1534141;92;21044;-50
2021/09/27 03:07:29;;;;;;;6.78;5.58;;;;;;;19.37;54.41;102007.30;1534227;92;21551;-51
2021/09/27 03:10:41;;;;;;;6.40;4.75;;;;;;;19.41;54.33;102007.58;1533680;92;21107;-50
2021/09/27 03:13:45;;;;;;;8.15;4.40;;;;;;;19.45;54.13;102007.86;1529293;92;21593;-50
2021/09/27 03:16:32;;;;;;;12.23;6.42;;;;;;;19.47;54.06;102008.66;1493128;94;21098;-50
2021/09/27 03:19:32;;;;;;;7.08;4.78;;;;;;;19.45;54.28;102003.91;1409820;100;21133;-49
2021/09/27 03:22:19;;;;;;;6.72;4.40;;;;;;;19.45;54.32;102007.03;1434566;97;21089;-49
2021/09/27 03:25:03;;;;;;;4.92;3.62;;;;;;;19.44;54.23;102008.80;1489931;96;21113;-52
2021/09/27 03:27:44;;;;;;;9.28;3.75;;;;;;;19.43;54.11;102014.98;1467080;98;21717;-49
2021/09/27 03:30:35;;;;;;;5.05;2.62;;;;;;;19.42;53.90;102009.31;1477545;95;21093;-49
2021/09/27 03:33:16;;;;;;;3.25;2.27;;;;;;;19.41;53.43;102012.86;1532244;92;21077;-50
2021/09/27 03:36:03;;;;;;;3.50;2.75;;;;;;;19.42;52.89;102015.92;1539306;92;21561;-49
2021/09/27 03:38:50;;;;;;;5.92;2.27;;;;;;;19.42;52.42;102019.87;1533920;92;21105;-48
2021/09/27 03:41:40;;;;;;;5.33;2.62;;;;;;;19.44;52.14;102020.68;1537948;92;21542;-51
2021/09/27 03:44:27;;;;;;;8.98;3.40;;;;;;;19.48;51.87;102022.28;1547318;92;21058;-47
2021/09/27 03:47:05;;;;;;;4.92;2.65;;;;;;;19.50;51.76;102018.25;1534825;92;21066;-49
2021/09/27 03:49:48;;;;;;;5.20;2.40;;;;;;;19.48;51.59;102016.13;1533837;92;21082;-49
2021/09/27 03:52:44;;;;;;;5.85;2.85;;;;;;;19.47;51.62;102017.90;1515571;93;21571;-49
2021/09/27 03:55:30;;;;;;;3.67;2.62;;;;;;;19.45;51.67;102023.70;1490916;96;21093;-47
2021/09/27 03:58:17;;;;;;;5.47;2.02;;;;;;;19.45;51.59;102029.47;1506621;95;21624;-47
2021/09/27 04:01:11;;;;;;;4.05;2.45;;;;;;;19.44;51.25;102036.97;1515755;94;21113;-49
2021/09/27 04:04:15;;;;;;;6.97;2.85;;;;;;;19.43;51.19;102033.45;1520187;93;21563;-49
2021/09/27 04:07:01;;;;;;;4.00;2.20;;;;;;;19.41;51.23;102039.25;1514713;93;21106;-47
2021/09/27 04:09:44;;;;;;;4.42;2.37;;;;;;;19.42;51.21;102036.16;1516150;93;21106;-50
2021/09/27 04:12:54;;;;;;;5.67;2.12;;;;;;;19.42;51.26;102033.08;1483510;95;22687;-46
2021/09/27 04:15:59;;;;;;;4.17;2.08;;;;;;;19.46;51.25;102038.64;1483422;95;21627;-51
2021/09/27 04:18:48;;;;;;;3.87;2.08;;;;;;;19.51;50.98;102039.79;1497482;95;21648;-50
2021/09/27 04:21:23;;;;;;;3.25;2.08;;;;;;;19.52;50.45;102037.98;1503628;95;21100;-50
2021/09/27 04:24:04;;;;;;;3.60;2.10;;;;;;;19.44;50.16;102037.84;1528515;93;21061;-49
2021/09/27 04:26:45;;;;;;;5.42;2.65;;;;;;;19.43;49.88;102041.38;1535574;92;21141;-47
2021/09/27 04:29:44;;;;;;;3.10;1.90;;;;;;;19.40;49.77;102040.19;1511191;94;21071;-53
2021/09/27 04:32:19;;;;;;;3.30;1.80;;;;;;;19.41;49.63;102034.46;1404304;102;21143;-47
2021/09/27 04:35:15;;;;;;;2.87;1.80;;;;;;;19.39;49.50;102038.45;1359600;106;21096;-50
2021/09/27 04:37:46;;;;;;;2.10;1.50;;;;;;;19.39;49.20;102038.94;1359896;105;21134;-47
2021/09/27 04:40:13;;;;;;;3.37;1.95;;;;;;;19.39;49.08;102037.13;1359846;106;21115;-49
2021/09/27 04:43:03;;;;;;;2.95;1.75;;;;;;;19.43;48.74;102037.91;1359754;106;21145;-48
2021/09/27 04:45:44;;;;;;;3.30;1.80;;;;;;;19.42;48.52;102047.59;1359631;106;21133;-53
2021/09/27 04:48:28;;;;;;;3.42;1.80;;;;;;;19.42;48.24;102055.96;1345960;107;21174;-48
2021/09/27 04:51:24;;;;;;;5.78;2.90;;;;;;;19.42;48.27;102058.16;1345948;107;21703;-47
2021/09/27 04:54:33;;;;;;;3.02;2.10;;;;;;;19.41;49.04;102061.70;1345885;107;21661;-47
2021/09/27 04:57:26;;;;;;;7.17;3.10;;;;;;;19.39;48.95;102056.94;1350129;105;21263;-49
2021/09/27 05:00:20;;;;;;;4.15;2.70;;;;;;;19.38;49.16;102063.59;1365882;105;21101;-50
2021/09/27 05:03:33;;;;;;;5.22;2.92;;;;;;;19.34;49.50;102060.67;1365730;105;21179;-47
2021/09/27 05:06:37;;;;;;;4.97;2.72;;;;;;;19.33;49.94;102067.72;1365421;105;21127;-50
2021/09/27 05:09:40;;;;;;;5.03;2.60;;;;;;;19.31;49.87;102070.84;1397594;97;21118;-50
2021/09/27 05:12:27;;;;;;;3.33;2.40;;;;;;;19.32;49.78;102073.91;1489368;94;21090;-51
2021/09/27 05:15:52;;;;;;;4.47;2.40;;;;;;;19.32;49.65;102069.94;1526833;94;21555;-47
2021/09/27 05:18:36;;;;;;;8.75;3.02;;;;;;;19.29;49.64;102068.72;1499709;96;21182;-50
2021/09/27 05:21:38;;;;;;;5.35;2.98;;;;;;;19.30;49.60;102071.78;1475718;96;21111;-50
2021/09/27 05:24:47;;;;;;;5.95;3.08;;;;;;;19.34;49.55;102075.19;1520035;91;21613;-50
2021/09/27 05:27:49;;;;;;;7.30;2.85;;;;;;;19.36;49.43;102075.98;1592873;90;21047;-50
2021/09/27 05:30:36;;;;;;;4.47;2.70;;;;;;;19.37;49.56;102078.56;1592857;90;21556;-47
2021/09/27 05:33:39;;;;;;;6.17;2.47;;;;;;;19.38;49.81;102082.94;1588715;90;21098;-50
2021/09/27 05:36:28;;;;;;;6.65;2.92;;;;;;;19.40;49.93;102074.95;1566900;91;21140;-50
2021/09/27 05:39:03;;;;;;;5.33;2.80;;;;;;;19.41;49.78;102084.13;1592805;90;21090;-47
2021/09/27 05:41:49;;;;;;;5.87;3.00;;;;;;;19.43;50.00;102091.53;1563143;91;21222;-50
2021/09/27 05:44:38;;;;;;;5.40;3.30;;;;;;;19.44;50.27;102091.08;1592919;90;21100;-50
2021/09/27 05:47:24;;;;;;;6.17;3.40;;;;;;;19.47;50.56;102093.14;1600758;89;21536;-52
2021/09/27 05:50:06;;;;;;;6.60;3.37;;;;;;;19.46;50.60;102086.16;1667913;86;21086;-50
2021/09/27 05:52:49;;;;;;;6.62;3.40;;;;;;;19.48;50.65;102096.20;1754439;82;21535;-50
2021/09/27 05:55:39;;;;;;;6.95;3.17;;;;;;;19.51;50.64;102099.64;1750045;82;21563;-48
2021/09/27 05:58:34;;;;;;;4.83;4.12;;;;;;;19.54;50.77;102092.94;1679678;85;21143;-47
2021/09/27 06:01:06;;;;;;;5.72;4.60;;;;;;;19.59;50.55;102097.57;1690928;84;21074;-47
2021/09/27 06:03:56;;;;;;;11.03;4.37;;;;;;;19.60;50.44;102096.67;1688337;84;21462;-49
2021/09/27 06:06:50;;;;;;;6.97;4.97;;;;;;;19.62;50.47;102098.79;1655893;86;21007;-50
2021/09/27 06:09:47;;;;;;;7.85;5.08;;;;;;;19.63;50.40;102099.17;1621817;87;21008;-51
2021/09/27 06:12:37;;;;;;;6.58;4.65;;;;;;;19.64;50.26;102107.52;1614788;89;21117;-50
2021/09/27 06:15:06;;;;;;;7.05;5.00;;;;;;;19.65;50.28;102113.18;1612792;89;21120;-50
2021/09/27 06:17:41;;;;;;;8.33;4.83;;;;;;;19.68;50.35;102118.36;1614681;89;21063;-49
2021/09/27 06:20:24;;;;;;;7.60;4.95;;;;;;;19.73;50.22;102112.42;1614665;89;21074;-49
2021/09/27 06:23:20;;;;;;;5.97;5.37;;;;;;;19.75;50.12;102110.59;1610447;89;21628;-50
2021/09/27 06:25:53;;;;;;;5.62;4.78;;;;;;;19.73;50.30;102115.94;1613188;89;21035;-47
2021/09/27 06:28:41;;;;;;;7.17;5.10;;;;;;;19.72;50.61;102116.00;1618012;87;21598;-50
2021/09/27 06:31:35;;;;;;;6.80;4.62;;;;;;;19.73;50.70;102114.62;1641020;87;21025;-51
2021/09/27 06:34:36;;;;;;;5.90;5.08;;;;;;;19.77;51.04;102111.39;1619189;87;21078;-50
2021/09/27 06:37:03;;;;;;;6.97;4.58;;;;;;;19.85;50.98;102115.91;1584614;90;21533;-49
2021/09/27 06:39:31;;;;;;;5.97;3.50;;;;;;;19.92;50.89;102113.45;1556960;90;21042;-50
2021/09/27 06:41:57;;;;;;;6.55;2.92;;;;;;;19.98;50.74;102109.25;1581005;90;21506;-50
2021/09/27 06:44:24;;;;;;;3.98;2.30;;;;;;;20.05;50.37;102114.22;1593892;89;21041;-49
2021/09/27 06:46:52;;;;;;;5.40;2.52;;;;;;;20.13;49.49;102116.58;1573963;90;21066;-50
2021/09/27 06:49:18;;;;;;;4.15;2.45;;;;;;;20.19;48.98;102117.66;1649287;84;21532;-50
2021/09/27 06:51:45;;;;;;;3.58;2.15;;;;;;;20.28;48.75;102117.78;1689720;84;21073;-53
2021/09/27 06:54:13;;;;;;;6.83;2.17;;;;;;;20.33;48.72;102117.98;1689168;84;21130;-48
2021/09/27 06:56:40;;;;;;;3.85;2.47;;;;;;;20.39;48.61;102121.70;1689473;84;21038;-50
2021/09/27 06:59:07;;;;;;;8.38;2.50;;;;;;;20.44;48.49;102118.42;1690288;84;21101;-48
2021/09/27 07:01:34;;;;;;;5.35;2.60;;;;;;;20.52;48.38;102122.93;1686441;85;21078;-50
2021/09/27 07:04:00;;;;;;;9.23;3.30;;;;;;;20.56;48.54;102131.13;1686765;85;21070;-47
2021/09/27 07:06:27;;;;;;;5.15;3.35;;;;;;;20.59;48.86;102127.02;1686697;85;21026;-48
2021/09/27 07:08:54;;;;;;;4.03;3.55;;;;;;;20.63;48.93;102132.58;1686663;85;20993;-50
2021/09/27 07:11:21;;;;;;;6.78;2.95;;;;;;;20.65;48.79;102133.87;1685522;84;21074;-49
2021/09/27 07:13:48;;;;;;;8.48;3.50;;;;;;;20.67;48.70;102138.14;1731741;80;20942;-50
2021/09/27 07:16:14;;;;;;;7.53;3.55;;;;;;;20.70;48.57;102148.61;1772408;80;21045;-47
2021/09/27 07:18:41;;;;;;;6.60;3.33;;;;;;;20.71;48.54;102147.66;1772507;80;21024;-50
2021/09/27 07:21:09;;;;;;;6.53;3.20;;;;;;;20.70;48.42;102145.97;1782582;80;21530;-50
2021/09/27 07:23:40;;;;;;;6.10;3.27;;;;;;;20.73;48.67;102155.08;1770047;80;20989;-47
2021/09/27 07:26:09;;;;;;;4.97;3.22;;;;;;;20.74;48.72;102146.23;1770121;80;21014;-51
2021/09/27 07:28:36;;;;;;;6.92;3.45;;;;;;;20.77;48.70;102146.58;1771913;80;21006;-50
2021/09/27 07:31:03;;;;;;;5.75;3.87;;;;;;;20.79;48.27;102153.50;1771776;80;21073;-50
2021/09/27 07:33:30;;;;;;;8.03;3.75;;;;;;;20.79;48.33;102149.53;1771039;80;21482;-51
2021/09/27 07:35:57;;;;;;;6.08;2.98;;;;;;;20.79;48.20;102149.53;1770134;80;21473;-50
2021/09/27 07:38:24;;;;;;;5.55;3.10;;;;;;;20.77;48.05;102148.73;1770179;80;20990;-51
2021/09/27 07:40:52;;;;;;;4.65;2.72;;;;;;;20.77;48.06;102156.67;1772508;80;21005;-48
2021/09/27 07:43:18;;;;;;;4.97;2.77;;;;;;;20.78;47.94;102154.44;1772980;80;20989;-50
2021/09/27 07:45:46;;;;;;;7.28;2.62;;;;;;;20.79;47.57;102152.17;1773105;80;20982;-48
2021/09/27 07:48:13;;;;;;;3.08;1.92;;;;;;;20.80;46.88;102151.27;1772736;80;20994;-51
2021/09/27 07:50:46;;;;;;;6.03;2.47;;;;;;;20.83;46.02;102147.19;1773134;80;21490;-48
2021/09/27 07:53:13;;;;;;;5.12;1.95;;;;;;;20.85;45.97;102155.91;1772152;80;21486;-50
2021/09/27 07:55:40;;;;;;;2.98;1.72;;;;;;;20.87;45.39;102154.06;1770105;80;20986;-50
2021/09/27 07:58:07;;;;;;;7.15;1.85;;;;;;;20.88;45.15;102155.77;1769875;80;21525;-51
2021/09/27 08:00:34;;;;;;;3.52;2.02;;;;;;;20.87;45.42;102154.06;1770731;80;21093;-50
2021/09/27 08:03:01;;;;;;;7.47;2.52;;;;;;;20.89;45.42;102155.31;1767086;80;21010;-52
2021/09/27 08:05:30;;;;;;;4.42;1.82;;;;;;;20.91;45.08;102149.49;1768894;80;21490;-50
2021/09/27 08:07:58;;;;;;;6.03;1.98;;;;;;;20.92;44.95;102154.70;1766003;80;21001;-51
2021/09/27 08:10:26;;;;;;;4.33;2.30;;;;;;;20.96;44.74;102156.75;1765883;80;21476;-49
2021/09/27 08:12:53;;;;;;;4.12;2.20;;;;;;;20.94;44.95;102162.12;1767446;80;21002;-50
2021/09/27 08:15:23;;;;;;;3.87;2.22;;;;;;;20.94;44.86;102156.83;1782724;80;21506;-50
2021/09/27 08:17:51;;;;;;;7.97;4.85;;;;;;;20.94;45.04;102155.50;1776800;80;21457;-50
2021/09/27 08:20:22;;;;;;;4.12;2.35;;;;;;;20.96;44.90;102165.56;1765028;80;20970;-50
2021/09/27 08:22:48;;;;;;;4.47;2.40;;;;;;;20.97;45.04;102159.36;1765819;80;20966;-49
2021/09/27 08:25:15;;;;;;;2.67;1.92;;;;;;;20.99;44.98;102160.16;1768310;80;21053;-50
2021/09/27 08:27:44;;;;;;;3.47;2.55;;;;;;;21.00;44.69;102160.98;1770627;80;20989;-49
2021/09/27 08:30:16;;;;;;;6.95;2.30;;;;;;;21.01;44.58;102163.59;1769345;80;21006;-48
2021/09/27 08:32:43;;;;;;;6.65;2.00;;;;;;;21.02;44.65;102153.42;1769138;80;21041;-50
2021/09/27 08:35:11;;;;;;;7.03;2.30;;;;;;;21.04;44.66;102160.00;1769108;80;20990;-50
2021/09/27 08:37:38;;;;;;;6.40;2.12;;;;;;;21.05;44.61;102158.59;1766350;80;21085;-50
2021/09/27 08:40:06;;;;;;;2.40;2.00;;;;;;;21.08;44.35;102151.83;1766009;80;20993;-47
2021/09/27 08:42:38;;;;;;;6.62;2.42;;;;;;;21.10;43.90;102153.56;1770314;80;21002;-48
2021/09/27 08:45:15;;;;;;;4.58;2.52;;;;;;;21.10;43.85;102153.56;1748677;80;20934;-50
2021/09/27 08:48:04;;;;;;;4.37;2.40;;;;;;;21.10;43.83;102150.92;1762453;80;21048;-49
2021/09/27 08:50:42;;;;;;;6.47;2.72;;;;;;;21.12;43.90;102149.07;1749849;80;21518;-52
2021/09/27 08:53:29;;;;;;;5.95;2.65;;;;;;;21.17;43.98;102147.06;1762225;80;21482;-48
2021/09/27 08:56:15;;;;;;;2.37;1.92;;;;;;;21.16;43.64;102148.00;1705110;84;21045;-48
2021/09/27 08:59:03;;;;;;;3.50;2.17;;;;;;;21.13;43.70;102145.48;1644899;87;21100;-50
2021/09/27 09:01:52;;;;;;;3.30;2.25;;;;;;;21.13;43.51;102144.16;1607543;89;21127;-48
2021/09/27 09:05:00;;;;;;;4.83;1.95;;;;;;;21.15;43.64;102140.98;1560736;91;21617;-50
2021/09/27 09:07:26;;;;;;;3.67;1.70;;;;;;;21.19;43.26;102142.56;1511160;94;21143;-50
2021/09/27 09:10:05;;;;;;;3.80;2.02;;;;;;;21.22;42.55;102143.31;1478408;96;21091;-49
2021/09/27 09:12:48;;;;;;;2.30;2.05;;;;;;;21.24;42.30;102145.88;1478186;96;21139;-50
2021/09/27 09:15:20;;;;;;;4.58;2.52;;;;;;;21.25;42.83;102137.00;1456537;98;21111;-52
2021/09/27 09:17:56;;;;;;;2.70;1.90;;;;;;;21.27;42.31;102133.36;1480113;96;21810;-51
2021/09/27 09:20:39;;;;;;;4.45;2.25;;;;;;;21.30;42.16;102140.31;1480055;96;21075;-50
2021/09/27 09:23:06;;;;;;;5.77;2.07;;;;;;;21.34;42.01;102137.92;1456119;98;21672;-50
2021/09/27 09:25:38;;;;;;;5.30;2.02;;;;;;;21.37;41.69;102135.16;1477624;96;21131;-50
2021/09/27 09:28:08;;;;;;;5.03;2.37;;;;;;;21.39;41.31;102143.89;1477577;96;21095;-48
2021/09/27 09:30:56;;;;;;;3.08;1.70;;;;;;;21.42;41.47;102139.77;1462332;96;21619;-53
2021/09/27 09:34:00;;;;;;;3.87;2.10;;;;;;;21.44;40.78;102140.55;1494311;95;21132;-51
2021/09/27 09:36:39;;;;;;;3.80;2.27;;;;;;;21.45;40.77;102136.99;1523584;93;21193;-48
2021/09/27 09:39:28;;;;;;;3.83;2.15;;;;;;;21.47;41.00;102135.13;1521067;93;21140;-50
2021/09/27 09:42:00;;;;;;;6.45;1.85;;;;;;;21.51;41.38;102131.41;1508643;94;21577;-50
2021/09/27 09:44:44;;;;;;;1.98;1.50;;;;;;;21.57;40.91;102136.44;1469792;97;21596;-48
2021/09/27 09:47:19;;;;;;;3.02;1.52;;;;;;;21.61;40.47;102127.41;1481510;97;21106;-48
2021/09/27 09:50:10;;;;;;;3.72;1.70;;;;;;;21.66;40.02;102134.21;1471100;97;21615;-54
2021/09/27 09:52:49;;;;;;;2.22;1.45;;;;;;;21.72;40.20;102133.09;1490023;95;21593;-50
2021/09/27 09:55:23;;;;;;;1.80;1.42;;;;;;;21.77;40.34;102132.39;1489850;95;21135;-50
2021/09/27 09:58:01;;;;;;;2.52;1.40;;;;;;;21.79;40.14;102131.41;1499877;94;21091;-51
2021/09/27 10:00:51;;;;;;;4.28;1.65;;;;;;;21.82;40.06;102131.77;1506026;94;21176;-50
2021/09/27 10:03:37;;;;;;;7.65;1.98;;;;;;;21.84;39.88;102136.03;1473813;97;21100;-49
2021/09/27 10:06:10;;;;;;;2.95;1.60;;;;;;;21.87;40.02;102132.39;1408994;101;21187;-48
2021/09/27 10:08:37;;;;;;;2.00;1.40;;;;;;;21.91;40.09;102128.66;1387110;103;21194;-50
2021/09/27 10:11:12;;;;;;;4.00;1.12;;;;;;;21.95;39.65;102131.56;1387421;101;21181;-49
2021/09/27 10:13:52;;;;;;;1.40;1.10;;;;;;;21.98;39.04;102122.16;1379104;103;21245;-48
2021/09/27 10:16:32;;;;;;;1.42;0.80;;;;;;;22.01;38.12;102128.63;1388760;103;21136;-50
2021/09/27 10:19:29;;;;;;;2.10;0.93;;;;;;;22.06;37.61;102121.32;1383574;103;21124;-50
2021/09/27 10:22:12;;;;;;;2.05;1.00;;;;;;;22.12;37.57;102118.37;1357582;104;21248;-48
2021/09/27 10:24:46;;;;;;;1.45;1.00;;;;;;;22.17;37.83;102115.05;1361739;104;21150;-49
2021/09/27 10:27:31;;;;;;;4.65;0.95;;;;;;;22.22;37.70;102114.34;1285908;109;21722;-49
2021/09/27 10:30:03;;;;;;;4.10;1.32;;;;;;;22.26;37.61;102111.93;1256201;112;21725;-50
2021/09/27 10:32:40;;;;;;;3.22;1.80;;;;;;;22.30;37.72;102112.17;1273207;111;21240;-53
2021/09/27 10:35:45;;;;;;;1.60;1.12;;;;;;;22.35;37.97;102116.80;1273827;112;21178;-49
2021/09/27 10:38:18;;;;;;;3.40;1.10;;;;;;;22.41;37.64;102119.15;1289044;111;21205;-53
2021/09/27 10:40:48;;;;;;;3.02;1.25;;;;;;;22.43;37.13;102107.99;1273920;108;21199;-50
2021/09/27 10:43:19;;;;;;;2.72;1.00;;;;;;;22.43;37.24;102111.97;1306172;109;21219;-51
2021/09/27 10:45:53;;;;;;;2.05;1.35;;;;;;;22.45;37.31;102115.41;1311952;108;21184;-46
2021/09/27 10:48:21;;;;;;;1.77;0.93;;;;;;;22.48;37.24;102108.61;1323997;107;21165;-52
2021/09/27 10:50:55;;;;;;;2.27;1.35;;;;;;;22.50;37.08;102108.06;1324926;107;21479;-50
2021/09/27 10:53:34;;;;;;;1.70;0.90;;;;;;;22.52;37.31;102106.19;1325494;108;21711;-47
2021/09/27 10:56:23;;;;;;;2.85;1.35;;;;;;;22.55;37.38;102102.08;1300782;105;21140;-48
2021/09/27 10:58:59;;;;;;;2.65;1.27;;;;;;;22.59;37.70;102101.47;1463172;96;21120;-47
2021/09/27 11:01:54;;;;;;;2.83;1.20;;;;;;;22.61;37.38;102107.10;1453701;97;21591;-50
2021/09/27 11:04:25;;;;;;;2.42;1.05;;;;;;;22.63;37.21;102103.91;1461846;97;21139;-49
2021/09/27 11:06:55;;;;;;;;;;;;;;;22.65;37.45;102096.72;1475774;97;21097;-50
2021/09/27 11:12:31;;;;;;;1.40;1.20;;;;;;;22.63;37.72;102097.27;1414785;101;21137;-50
2021/09/27 11:15:09;;;;;;;2.45;1.32;;;;;;;22.65;37.44;102099.38;1404650;101;21220;-49
2021/09/27 11:18:03;;;;;;;2.00;1.40;;;;;;;22.66;37.14;102097.59;1384902;102;21236;-50
2021/09/27 11:20:51;;;;;;;2.17;1.50;;;;;;;22.65;37.48;102091.41;1435640;100;21121;-49
2021/09/27 11:23:23;;;;;;;5.80;1.40;;;;;;;22.67;37.18;102087.84;1434529;100;21167;-51
2021/09/27 11:26:22;;;;;;;2.25;1.32;;;;;;;22.67;37.02;102079.88;1435645;100;21172;-47
2021/09/27 11:28:56;;;;;;;1.80;1.37;;;;;;;22.67;37.54;102081.21;1426996;100;21153;-49
2021/09/27 11:31:35;;;;;;;3.65;1.50;;;;;;;22.66;37.68;102076.36;1432420;99;21161;-49
2021/09/27 11:34:11;;;;;;;3.08;1.50;;;;;;;22.68;37.71;102080.25;1442422;97;21140;-49
2021/09/27 11:36:50;;;;;;;4.25;1.67;;;;;;;22.72;37.70;102080.48;1453207;95;21125;-48
2021/09/27 11:39:26;;;;;;;2.45;1.25;;;;;;;22.75;37.58;102077.69;1512123;93;21092;-49
2021/09/27 11:42:21;;;;;;;3.52;1.52;;;;;;;22.78;37.80;102072.20;1506597;95;21694;-49
2021/09/27 11:45:12;;;;;;;3.55;1.57;;;;;;;22.81;37.55;102070.73;1460868;98;21130;-50
2021/09/27 11:47:48;;;;;;;5.55;1.67;;;;;;;22.83;37.47;102072.84;1458321;98;21126;-47
2021/09/27 11:50:47;;;;;;;2.92;1.55;;;;;;;22.83;37.64;102071.05;1458612;98;21123;-50
2021/09/27 11:53:34;;;;;;;3.02;1.62;;;;;;;22.85;37.85;102072.30;1458556;98;21596;-47
2021/09/27 11:56:25;;;;;;;2.05;1.30;;;;;;;22.86;38.00;102072.67;1435716;100;21663;-51
2021/09/27 11:59:14;;;;;;;1.55;1.45;;;;;;;22.85;37.41;102071.83;1436296;100;21097;-48
2021/09/27 12:02:00;;;;;;;2.37;1.60;;;;;;;22.89;37.28;102075.18;1439442;97;21154;-48
2021/09/27 12:05:14;;;;;;;2.40;1.37;;;;;;;22.89;37.06;102070.73;1442499;99;21678;-51
2021/09/27 12:07:52;;;;;;;1.65;1.02;;;;;;;22.89;37.19;102065.89;1421250;99;21132;-50
2021/09/27 12:10:33;;;;;;;4.92;1.02;;;;;;;22.91;37.31;102061.36;1464809;97;21102;-49
2021/09/27 12:13:19;;;;;;;3.10;1.30;;;;;;;22.92;37.28;102063.06;1435583;99;21167;-48
2021/09/27 12:15:59;;;;;;;4.05;1.27;;;;;;;22.93;37.30;102059.48;1531060;93;21113;-47
2021/09/27 12:18:55;;;;;;;2.20;1.30;;;;;;;22.96;37.38;102056.65;1531994;93;21072;-49
2021/09/27 12:21:27;;;;;;;1.20;1.00;;;;;;;22.98;36.94;102058.78;1546938;88;21586;-50
2021/09/27 12:23:57;;;;;;;2.98;1.20;;;;;;;22.98;36.63;102051.66;1616335;88;21046;-49
2021/09/27 12:26:30;;;;;;;2.37;1.40;;;;;;;22.98;36.90;102053.47;1615247;88;21098;-49
2021/09/27 12:29:11;;;;;;;2.15;1.42;;;;;;;22.98;37.08;102050.82;1609459;88;21055;-50
2021/09/27 12:31:58;;;;;;;2.85;1.17;;;;;;;22.97;37.00;102047.77;1614428;88;21093;-47